Terminal Aerodrome Forecast
Issued by NWS

Home | Current Version | Previous Version | Text Only | Print | Product List | Glossary On
Versions: 1 2 3 4 5 6 7 8 9 10 11 12 13 14 15 16 17 18 19
000
FTUS42 KTBW 291800 AAA
TAFPIE
TAF AMD
KPIE 291835Z 2919/3018 27013KT P6SM VCTS SCT030CB BKN100
      TEMPO 2919/2921 VRB15G25KT 4SM TSRA BKN025CB
     FM300200 VRB06KT P6SM SCT025 SCT100 BKN250
     FM301300 VRB05KT P6SM FEW020 SCT035=

USA.gov is the U.S. government's official web portal to all federal, state and local government web resources and services.